Time;durP1;ratioP1;P1;durP2;ratioP2;P2;SDS_P1;SDS_P2;PMS_P1;PMS_P2;Temp;Humidity;BMP_temperature;BMP_pressure;BME280_temperature;BME280_humidity;BME280_pressure;Samples;Min_cycle;Max_cycle;Signal;HPM_P1;HPM_P2
2022/08/11 00:00:11;;;;;;;0.47;0.30;;;;;;;;;;5041461;28;20025;-76
2022/08/11 00:02:50;;;;;;;1.60;1.50;;;;;;;;;;5015485;28;20026;-76
2022/08/11 00:05:20;;;;;;;1.63;0.43;;;;;;;;;;5028711;28;20029;-77
2022/08/11 00:07:50;;;;;;;1.50;0.40;;;;;;;;;;5062224;28;20028;-77
2022/08/11 00:10:19;;;;;;;2.90;0.68;;;;;;;;;;5031809;28;20033;-77
2022/08/11 00:12:55;;;;;;;0.93;0.60;;;;;;;;;;5029837;28;20037;-76
2022/08/11 00:15:25;;;;;;;0.75;0.52;;;;;;;;;;5036058;28;20037;-76
2022/08/11 00:18:02;;;;;;;0.25;0.25;;;;;;;;;;5044430;28;20033;-76
2022/08/11 00:20:33;;;;;;;1.65;0.85;;;;;;;;;;5066750;28;20025;-78
2022/08/11 00:23:07;;;;;;;1.07;0.67;;;;;;;;;;5034558;28;20040;-76
2022/08/11 00:25:42;;;;;;;0.85;0.60;;;;;;;;;;5028779;28;20033;-75
2022/08/11 00:28:29;;;;;;;0.70;0.50;;;;;;;;;;5034294;28;20115;-77
2022/08/11 00:30:57;;;;;;;0.47;0.47;;;;;;;;;;5034808;28;20041;-77
2022/08/11 00:33:25;;;;;;;0.75;0.65;;;;;;;;;;5034423;28;20322;-76
2022/08/11 00:35:57;;;;;;;0.65;0.60;;;;;;;;;;5068576;28;20124;-76
2022/08/11 00:38:24;;;;;;;0.98;0.77;;;;;;;;;;5047593;28;20022;-77
2022/08/11 00:40:58;;;;;;;0.38;0.38;;;;;;;;;;5063033;28;20033;-77
2022/08/11 00:43:56;;;;;;;1.42;0.50;;;;;;;;;;5014793;28;20026;-78
2022/08/11 00:46:25;;;;;;;0.45;0.43;;;;;;;;;;5021052;28;20095;-74
2022/08/11 00:49:18;;;;;;;0.90;0.90;;;;;;;;;;5030421;28;20030;-77
2022/08/11 00:51:49;;;;;;;0.47;0.47;;;;;;;;;;5029038;28;20022;-77
2022/08/11 00:54:48;;;;;;;0.70;0.70;;;;;;;;;;5035172;28;20037;-75
2022/08/11 00:57:31;;;;;;;0.82;0.60;;;;;;;;;;5036623;28;20049;-76
2022/08/11 01:00:19;;;;;;;0.47;0.30;;;;;;;;;;5034658;28;20160;-77
2022/08/11 01:03:03;;;;;;;0.40;0.40;;;;;;;;;;5034657;28;20033;-76
2022/08/11 01:06:03;;;;;;;0.70;0.60;;;;;;;;;;5033669;28;20836;-77
2022/08/11 01:09:07;;;;;;;0.73;0.57;;;;;;;;;;5015426;28;20029;-79
2022/08/11 01:12:05;;;;;;;1.65;0.95;;;;;;;;;;5033806;28;20045;-77
2022/08/11 01:15:01;;;;;;;2.72;0.82;;;;;;;;;;5033302;28;20018;-76
2022/08/11 01:17:54;;;;;;;1.48;0.95;;;;;;;;;;5035968;28;20100;-77
2022/08/11 01:20:57;;;;;;;0.28;0.22;;;;;;;;;;5022837;28;20026;-77
2022/08/11 01:23:37;;;;;;;;;;;;;;;;;;5034760;28;20060;-78
2022/08/11 01:26:39;;;;;;;1.60;0.50;;;;;;;;;;5033177;28;19913;-77
2022/08/11 01:29:41;;;;;;;0.80;0.60;;;;;;;;;;5043718;28;20041;-78
2022/08/11 01:32:28;;;;;;;0.40;0.40;;;;;;;;;;5035757;28;20495;-78
2022/08/11 01:35:24;;;;;;;2.25;0.90;;;;;;;;;;5034753;28;20519;-78
2022/08/11 01:38:11;;;;;;;0.73;0.73;;;;;;;;;;5049476;28;20071;-76
2022/08/11 01:41:12;;;;;;;4.72;0.90;;;;;;;;;;5055362;28;20037;-77
2022/08/11 01:46:47;;;;;;;0.50;0.50;;;;;;;;;;5037528;28;20580;-77
2022/08/11 01:49:29;;;;;;;1.25;0.77;;;;;;;;;;5055590;28;20448;-77
2022/08/11 01:52:08;;;;;;;0.57;0.50;;;;;;;;;;5034526;28;20025;-77
2022/08/11 01:54:48;;;;;;;0.32;0.32;;;;;;;;;;5033544;28;20037;-78
2022/08/11 01:57:43;;;;;;;0.68;0.50;;;;;;;;;;5038648;28;20024;-77
2022/08/11 02:00:13;;;;;;;0.47;0.40;;;;;;;;;;5047015;28;20487;-76
2022/08/11 02:03:00;;;;;;;1.27;0.88;;;;;;;;;;5015974;28;20030;-78
2022/08/11 02:05:28;;;;;;;0.50;0.50;;;;;;;;;;5026367;28;20083;-78
2022/08/11 02:08:09;;;;;;;0.70;0.60;;;;;;;;;;5048095;28;20028;-77
2022/08/11 02:13:39;;;;;;;1.23;0.68;;;;;;;;;;5032183;28;20046;-77
2022/08/11 02:16:32;;;;;;;0.73;0.50;;;;;;;;;;5030890;28;20095;-76
2022/08/11 02:25:10;;;;;;;1.30;0.47;;;;;;;;;;5033331;28;20115;-77
2022/08/11 02:27:52;;;;;;;1.98;0.80;;;;;;;;;;5033927;28;20018;-78
2022/08/11 02:30:23;;;;;;;1.13;0.77;;;;;;;;;;5050174;28;20124;-76
2022/08/11 02:36:14;;;;;;;0.35;0.35;;;;;;;;;;5034489;28;20147;-77
2022/08/11 02:38:48;;;;;;;1.50;1.05;;;;;;;;;;5060619;28;20041;-77
2022/08/11 02:44:22;;;;;;;0.93;0.70;;;;;;;;;;5033442;28;20080;-77
2022/08/11 02:47:13;;;;;;;1.10;0.60;;;;;;;;;;5037947;28;20025;-76
2022/08/11 02:49:59;;;;;;;5.00;1.08;;;;;;;;;;5034521;28;20507;-76
2022/08/11 02:52:32;;;;;;;1.27;0.50;;;;;;;;;;5033281;28;20449;-77
2022/08/11 02:55:19;;;;;;;2.20;0.80;;;;;;;;;;5034240;28;20033;-76
2022/08/11 02:58:02;;;;;;;0.55;0.55;;;;;;;;;;5041267;28;20025;-75
2022/08/11 03:00:29;;;;;;;0.75;0.73;;;;;;;;;;5033227;28;20025;-77
2022/08/11 03:03:23;;;;;;;1.95;0.68;;;;;;;;;;5031895;28;20457;-77
2022/08/11 03:05:55;;;;;;;1.60;0.63;;;;;;;;;;5046294;28;20030;-76
2022/08/11 03:08:23;;;;;;;0.80;0.70;;;;;;;;;;5038670;28;20032;-76
2022/08/11 03:17:25;;;;;;;4.85;1.20;;;;;;;;;;5038372;28;20035;-77
2022/08/11 03:19:59;;;;;;;6.55;1.63;;;;;;;;;;5034977;28;20478;-77
2022/08/11 03:23:03;;;;;;;1.08;0.60;;;;;;;;;;5032869;28;20048;-74
2022/08/11 03:25:31;;;;;;;0.70;0.55;;;;;;;;;;5001986;28;20046;-77
2022/08/11 03:28:27;;;;;;;3.88;1.58;;;;;;;;;;5043076;28;20561;-78
2022/08/11 03:31:05;;;;;;;1.95;1.38;;;;;;;;;;5032368;28;20137;-77
2022/08/11 03:36:45;;;;;;;2.13;1.40;;;;;;;;;;5032427;28;20094;-75
2022/08/11 03:39:34;;;;;;;1.08;0.68;;;;;;;;;;5050749;28;20044;-77
2022/08/11 03:42:51;;;;;;;3.50;1.17;;;;;;;;;;5034516;28;20113;-76
2022/08/11 03:45:19;;;;;;;1.70;0.75;;;;;;;;;;5025052;28;20175;-79
2022/08/11 03:47:53;;;;;;;9.32;1.33;;;;;;;;;;5033691;28;20037;-77
2022/08/11 03:50:22;;;;;;;2.40;0.85;;;;;;;;;;5051814;28;20043;-78
2022/08/11 03:52:52;;;;;;;0.90;0.73;;;;;;;;;;5055841;28;20471;-77
2022/08/11 03:55:31;;;;;;;4.05;1.23;;;;;;;;;;5026068;28;20025;-77
2022/08/11 03:58:30;;;;;;;1.00;0.90;;;;;;;;;;5036166;28;20144;-77
2022/08/11 04:01:14;;;;;;;0.70;0.70;;;;;;;;;;5036756;28;20498;-78
2022/08/11 04:03:48;;;;;;;2.67;1.42;;;;;;;;;;5025008;28;20322;-78
2022/08/11 04:06:26;;;;;;;1.33;0.63;;;;;;;;;;5035683;28;20061;-78
2022/08/11 04:09:29;;;;;;;2.75;1.05;;;;;;;;;;5039994;28;20039;-75
2022/08/11 04:12:12;;;;;;;0.93;0.70;;;;;;;;;;5056781;28;20025;-78
2022/08/11 04:17:58;;;;;;;1.08;0.90;;;;;;;;;;5036500;28;20036;-77
2022/08/11 04:20:50;;;;;;;1.67;1.27;;;;;;;;;;5051759;28;20029;-78
2022/08/11 04:23:49;;;;;;;1.20;1.10;;;;;;;;;;5046158;28;20064;-77
2022/08/11 04:26:40;;;;;;;1.52;0.60;;;;;;;;;;5038253;28;20026;-77
2022/08/11 04:29:05;;;;;;;0.95;0.75;;;;;;;;;;5039739;28;20032;-77
2022/08/11 04:31:39;;;;;;;3.58;0.88;;;;;;;;;;5055878;28;20673;-79
2022/08/11 04:34:32;;;;;;;0.63;0.55;;;;;;;;;;5056671;28;20028;-77
2022/08/11 04:40:09;;;;;;;1.40;1.00;;;;;;;;;;5035394;28;20052;-77
2022/08/11 04:43:20;;;;;;;2.28;1.23;;;;;;;;;;5049005;28;20029;-77
2022/08/11 04:46:20;;;;;;;2.63;1.15;;;;;;;;;;5025204;28;20033;-78
2022/08/11 05:01:39;;;;;;;0.73;0.70;;;;;;;;;;5036590;28;20048;-76
2022/08/11 05:05:29;;;;;;;6.35;1.52;;;;;;;;;;5034585;28;20048;-77
2022/08/11 05:06:57;;;;;;;0.63;0.63;;;;;;;;;;5052266;28;20039;-77
2022/08/11 05:09:43;;;;;;;1.45;0.98;;;;;;;;;;5040249;28;20043;-77
2022/08/11 05:12:28;;;;;;;1.55;0.88;;;;;;;;;;5034257;28;20022;-77
2022/08/11 05:35:06;;;;;;;1.50;1.30;;;;;;;;;;5062846;28;20601;-76
2022/08/11 05:57:26;;;;;;;1.33;1.15;;;;;;;;;;5032714;28;20104;-78
2022/08/11 05:59:58;;;;;;;2.80;0.82;;;;;;;;;;5049750;28;20341;-75
2022/08/11 06:02:24;;;;;;;1.45;0.95;;;;;;;;;;5015450;28;20025;-77
2022/08/11 06:04:55;;;;;;;1.80;1.02;;;;;;;;;;5031089;28;20471;-77
2022/08/11 06:07:28;;;;;;;0.87;0.83;;;;;;;;;;5065159;28;20051;-77
2022/08/11 06:09:57;;;;;;;5.35;1.20;;;;;;;;;;5030471;28;20037;-80
2022/08/11 06:12:27;;;;;;;0.68;0.68;;;;;;;;;;5030496;28;20852;-76
2022/08/11 06:15:02;;;;;;;1.02;0.63;;;;;;;;;;5033020;28;20036;-77
2022/08/11 06:17:31;;;;;;;1.27;0.65;;;;;;;;;;5065365;28;20025;-79
2022/08/11 06:19:59;;;;;;;0.50;0.50;;;;;;;;;;5045418;28;20033;-79
2022/08/11 06:22:27;;;;;;;1.23;1.13;;;;;;;;;;5017658;28;20025;-78
2022/08/11 06:24:57;;;;;;;1.20;0.50;;;;;;;;;;5044618;28;20466;-78
2022/08/11 06:27:25;;;;;;;5.57;1.00;;;;;;;;;;5035935;28;20104;-78
2022/08/11 06:29:53;;;;;;;4.18;1.30;;;;;;;;;;5066597;28;20061;-77
2022/08/11 06:32:22;;;;;;;2.05;1.20;;;;;;;;;;5034703;28;20044;-77
2022/08/11 06:35:13;;;;;;;1.20;1.10;;;;;;;;;;5039114;28;20033;-76
2022/08/11 06:37:48;;;;;;;0.60;0.60;;;;;;;;;;5043249;28;20062;-78
2022/08/11 06:40:32;;;;;;;3.72;0.90;;;;;;;;;;5042731;28;20486;-79
2022/08/11 06:43:09;;;;;;;0.85;0.77;;;;;;;;;;5063064;28;20025;-78
2022/08/11 06:46:01;;;;;;;0.73;0.52;;;;;;;;;;5035934;28;20051;-78
2022/08/11 06:48:27;;;;;;;;;;;;;;;;;;5043449;28;20032;-78
2022/08/11 06:51:10;;;;;;;0.55;0.55;;;;;;;;;;5014880;28;19913;-77
2022/08/11 06:53:39;;;;;;;0.50;0.50;;;;;;;;;;5032294;28;20063;-79
2022/08/11 07:02:00;;;;;;;0.80;0.80;;;;;;;;;;5023421;28;20327;-79
2022/08/11 07:04:33;;;;;;;2.63;0.80;;;;;;;;;;5029952;28;20049;-80
2022/08/11 07:15:50;;;;;;;1.85;0.90;;;;;;;;;;5033557;28;20113;-80
2022/08/11 07:29:37;;;;;;;0.80;0.80;;;;;;;;;;5018153;28;20117;-80
2022/08/11 07:32:16;;;;;;;0.77;0.77;;;;;;;;;;5061650;28;20466;-79
2022/08/11 07:34:47;;;;;;;0.73;0.70;;;;;;;;;;5037157;28;20523;-80
2022/08/11 07:37:18;;;;;;;1.15;1.08;;;;;;;;;;5040987;28;20018;-81
2022/08/11 07:39:48;;;;;;;1.50;1.33;;;;;;;;;;5033912;28;20116;-81
2022/08/11 07:42:19;;;;;;;0.88;0.88;;;;;;;;;;5033342;28;20025;-82
2022/08/11 07:53:03;;;;;;;1.02;0.90;;;;;;;;;;5031056;28;20102;-77
2022/08/11 07:55:30;;;;;;;1.02;0.75;;;;;;;;;;5056215;28;20025;-80
2022/08/11 08:20:06;;;;;;;1.25;0.80;;;;;;;;;;5035622;28;20134;-80
2022/08/11 08:22:32;;;;;;;0.98;0.80;;;;;;;;;;5034404;28;20056;-78
2022/08/11 08:24:58;;;;;;;1.67;1.13;;;;;;;;;;5034720;28;20025;-79
2022/08/11 08:27:27;;;;;;;0.80;0.80;;;;;;;;;;5031638;28;20147;-80
2022/08/11 08:32:40;;;;;;;0.60;0.60;;;;;;;;;;5034283;28;20065;-82
2022/08/11 08:35:07;;;;;;;2.58;1.00;;;;;;;;;;5035432;28;20029;-81
2022/08/11 08:37:35;;;;;;;0.85;0.85;;;;;;;;;;5036124;28;20021;-83
2022/08/11 08:40:01;;;;;;;0.60;0.60;;;;;;;;;;5032178;28;20026;-80
2022/08/11 08:42:28;;;;;;;0.80;0.80;;;;;;;;;;5033862;28;20036;-80
2022/08/11 08:45:06;;;;;;;1.73;1.13;;;;;;;;;;5034991;28;20029;-79
2022/08/11 08:47:35;;;;;;;4.20;1.20;;;;;;;;;;5033419;28;21502;-78
2022/08/11 08:50:04;;;;;;;1.17;0.85;;;;;;;;;;5033979;28;20467;-80
2022/08/11 08:52:34;;;;;;;0.40;0.40;;;;;;;;;;5067200;28;20099;-80
2022/08/11 08:55:03;;;;;;;1.23;1.00;;;;;;;;;;5051302;28;20032;-80
2022/08/11 08:57:34;;;;;;;0.85;0.65;;;;;;;;;;5036409;28;20347;-76
2022/08/11 09:00:00;;;;;;;0.95;0.80;;;;;;;;;;5023640;28;20064;-80
2022/08/11 09:02:26;;;;;;;1.95;1.00;;;;;;;;;;5036055;28;20033;-78
2022/08/11 09:04:52;;;;;;;0.85;0.80;;;;;;;;;;5035324;28;20025;-80
2022/08/11 09:07:22;;;;;;;1.33;0.98;;;;;;;;;;5068651;28;20026;-80
2022/08/11 09:09:49;;;;;;;6.68;1.02;;;;;;;;;;5038480;28;20057;-77
2022/08/11 09:12:18;;;;;;;1.13;1.00;;;;;;;;;;5037873;28;20029;-76
2022/08/11 09:14:59;;;;;;;4.72;2.00;;;;;;;;;;5014172;28;20603;-80
2022/08/11 09:17:46;;;;;;;1.00;0.85;;;;;;;;;;5039625;28;20020;-82
2022/08/11 09:20:24;;;;;;;1.17;0.90;;;;;;;;;;5015214;28;20460;-81
2022/08/11 09:28:28;;;;;;;0.73;0.73;;;;;;;;;;5037596;28;20386;-80
2022/08/11 09:30:59;;;;;;;0.73;0.50;;;;;;;;;;5055686;28;20360;-79
2022/08/11 09:33:28;;;;;;;0.85;0.85;;;;;;;;;;5054553;28;20448;-79
2022/08/11 09:40:27;;;;;;;0.70;0.70;;;;;;;;;;5054805;28;20490;-80
2022/08/11 09:41:35;;;;;;;0.75;0.73;;;;;;;;;;5027661;28;20087;-79
2022/08/11 09:46:45;;;;;;;2.45;0.80;;;;;;;;;;5058738;28;20368;-80
2022/08/11 09:49:10;;;;;;;1.23;1.02;;;;;;;;;;5045575;28;20026;-81
2022/08/11 09:51:36;;;;;;;0.93;0.80;;;;;;;;;;5065847;28;20112;-85
2022/08/11 09:54:09;;;;;;;1.17;1.00;;;;;;;;;;5016334;28;20052;-81
2022/08/11 09:59:29;;;;;;;0.93;0.70;;;;;;;;;;5038395;28;20475;-89
2022/08/11 10:02:01;;;;;;;2.33;1.63;;;;;;;;;;5037824;28;20029;-87
2022/08/11 10:04:36;;;;;;;3.60;2.42;;;;;;;;;;5034842;28;20383;-87
2022/08/11 10:07:08;;;;;;;0.80;0.80;;;;;;;;;;5034287;28;20017;-88
2022/08/11 10:09:48;;;;;;;1.45;1.15;;;;;;;;;;5035248;28;20033;-85
2022/08/11 10:12:23;;;;;;;0.65;0.60;;;;;;;;;;5033280;28;20025;-85
2022/08/11 10:18:40;;;;;;;0.88;0.70;;;;;;;;;;5032668;28;20131;-87
2022/08/11 10:20:29;;;;;;;0.60;0.60;;;;;;;;;;5038735;28;20033;-87
2022/08/11 10:28:35;;;;;;;0.75;0.60;;;;;;;;;;5041477;28;20107;-86
2022/08/11 10:34:00;;;;;;;0.70;0.70;;;;;;;;;;5042852;28;20039;-80
2022/08/11 10:36:27;;;;;;;2.25;0.80;;;;;;;;;;5043965;28;20039;-87
2022/08/11 10:38:54;;;;;;;0.70;0.68;;;;;;;;;;5025956;28;20037;-84
2022/08/11 10:44:10;;;;;;;1.58;0.98;;;;;;;;;;5060411;28;20364;-85
2022/08/11 10:49:21;;;;;;;2.65;1.85;;;;;;;;;;5049639;28;20063;-87
2022/08/11 11:00:05;;;;;;;1.05;0.90;;;;;;;;;;5052839;28;20032;-87
2022/08/11 11:02:34;;;;;;;0.85;0.75;;;;;;;;;;5053202;28;20375;-86
2022/08/11 11:05:19;;;;;;;3.63;1.10;;;;;;;;;;5030499;28;20448;-86
2022/08/11 11:10:59;;;;;;;1.27;0.90;;;;;;;;;;5035799;28;20094;-85
2022/08/11 11:19:09;;;;;;;1.75;1.25;;;;;;;;;;5034588;28;20058;-80
2022/08/11 11:21:35;;;;;;;0.52;0.52;;;;;;;;;;5033331;28;20039;-73
2022/08/11 11:24:39;;;;;;;2.28;1.30;;;;;;;;;;5033320;28;20420;-73
2022/08/11 11:27:30;;;;;;;2.42;1.25;;;;;;;;;;5033812;28;20040;-74
2022/08/11 11:30:03;;;;;;;1.10;1.00;;;;;;;;;;5020730;28;20049;-75
2022/08/11 11:32:40;;;;;;;1.40;1.00;;;;;;;;;;5036141;28;20034;-72
2022/08/11 11:35:17;;;;;;;1.63;1.27;;;;;;;;;;5033531;28;20104;-73
2022/08/11 11:37:48;;;;;;;0.93;0.75;;;;;;;;;;5039119;28;20029;-74
2022/08/11 11:40:21;;;;;;;2.22;1.00;;;;;;;;;;5033794;28;20029;-74
2022/08/11 11:42:49;;;;;;;0.80;0.80;;;;;;;;;;5032064;28;20479;-74
2022/08/11 11:45:16;;;;;;;0.70;0.70;;;;;;;;;;5028745;28;20233;-74
2022/08/11 11:47:43;;;;;;;0.82;0.82;;;;;;;;;;5010851;28;20117;-73
2022/08/11 11:50:09;;;;;;;1.20;0.77;;;;;;;;;;5031344;28;20034;-74
2022/08/11 11:52:35;;;;;;;1.27;0.93;;;;;;;;;;5032537;28;20032;-74
2022/08/11 11:55:01;;;;;;;1.90;1.23;;;;;;;;;;5031173;28;20063;-75
2022/08/11 12:03:01;;;;;;;2.50;1.73;;;;;;;;;;5037731;28;20094;-75
2022/08/11 12:05:27;;;;;;;8.70;2.33;;;;;;;;;;5034389;28;20055;-74
2022/08/11 13:32:50;;;;;;;1.15;1.02;;;;;;;;;;5056352;28;20044;-81
2022/08/11 13:35:16;;;;;;;0.80;0.80;;;;;;;;;;5036139;28;20029;-78
2022/08/11 13:37:45;;;;;;;1.45;0.77;;;;;;;;;;5053793;28;20111;-77
2022/08/11 13:40:11;;;;;;;0.68;0.68;;;;;;;;;;5037075;28;20091;-77
2022/08/11 13:42:38;;;;;;;0.82;0.82;;;;;;;;;;5052103;28;20482;-75
2022/08/11 13:45:06;;;;;;;1.70;1.58;;;;;;;;;;5034197;28;20455;-78
2022/08/11 13:47:34;;;;;;;1.20;1.10;;;;;;;;;;5036495;28;20378;-78
2022/08/11 13:50:00;;;;;;;1.98;1.13;;;;;;;;;;5033643;28;20021;-75
2022/08/11 13:52:27;;;;;;;0.95;0.82;;;;;;;;;;5017316;28;20359;-76
2022/08/11 13:54:55;;;;;;;2.20;1.33;;;;;;;;;;5035332;28;20515;-76
2022/08/11 13:57:23;;;;;;;1.05;0.73;;;;;;;;;;5033285;28;20100;-78
2022/08/11 14:00:08;;;;;;;0.80;0.80;;;;;;;;;;5036549;28;20037;-77
2022/08/11 14:02:35;;;;;;;3.15;0.70;;;;;;;;;;5019032;28;20027;-77
2022/08/11 14:05:04;;;;;;;1.17;0.98;;;;;;;;;;5034422;28;20035;-79
2022/08/11 14:07:34;;;;;;;0.68;0.68;;;;;;;;;;5015270;28;20104;-80
2022/08/11 14:10:00;;;;;;;1.25;1.00;;;;;;;;;;5035277;28;20025;-77
2022/08/11 14:15:18;;;;;;;1.45;1.00;;;;;;;;;;5044884;28;20040;-80
2022/08/11 14:17:49;;;;;;;1.35;1.10;;;;;;;;;;5050334;28;20025;-77
2022/08/11 14:20:23;;;;;;;0.60;0.50;;;;;;;;;;5032365;28;20032;-75
2022/08/11 14:22:53;;;;;;;1.05;0.85;;;;;;;;;;5051131;28;20083;-78
2022/08/11 14:25:18;;;;;;;1.05;1.00;;;;;;;;;;5034817;28;20024;-78
2022/08/11 14:27:48;;;;;;;0.88;0.70;;;;;;;;;;5020255;28;20021;-76
2022/08/11 14:33:03;;;;;;;0.75;0.75;;;;;;;;;;5044295;28;20583;-77
2022/08/11 14:35:29;;;;;;;0.70;0.70;;;;;;;;;;5009517;28;20109;-78
2022/08/11 14:37:55;;;;;;;1.45;1.10;;;;;;;;;;5010583;28;20030;-76
2022/08/11 14:48:38;;;;;;;1.17;1.08;;;;;;;;;;5008684;28;20068;-77
2022/08/11 14:51:04;;;;;;;0.50;0.50;;;;;;;;;;5010653;28;20030;-77
2022/08/11 14:53:33;;;;;;;1.13;0.75;;;;;;;;;;5011927;28;20723;-75
2022/08/11 14:58:43;;;;;;;0.70;0.70;;;;;;;;;;5009097;28;20067;-75
2022/08/11 15:03:08;;;;;;;1.60;0.93;;;;;;;;;;5010258;28;20045;-74
2022/08/11 15:03:55;;;;;;;0.68;0.68;;;;;;;;;;5010295;28;20080;-75
2022/08/11 15:06:20;;;;;;;0.93;0.82;;;;;;;;;;5008764;28;20373;-75
2022/08/11 15:08:56;;;;;;;0.63;0.63;;;;;;;;;;5009932;28;20018;-73
2022/08/11 15:14:09;;;;;;;2.28;0.95;;;;;;;;;;5012700;28;20060;-75
2022/08/11 15:19:27;;;;;;;0.60;0.60;;;;;;;;;;5011085;28;20032;-75
2022/08/11 15:24:39;;;;;;;0.70;0.70;;;;;;;;;;5009582;28;20045;-74
2022/08/11 15:38:10;;;;;;;0.75;0.70;;;;;;;;;;4989524;28;20089;-76
2022/08/11 15:46:31;;;;;;;;;;;;;;;;;;4993447;28;20721;-75
2022/08/11 15:49:21;;;;;;;0.98;0.93;;;;;;;;;;4993824;28;19928;-77
2022/08/11 15:51:50;;;;;;;0.52;0.52;;;;;;;;;;4973282;28;20369;-75
2022/08/11 15:54:20;;;;;;;1.17;1.08;;;;;;;;;;4995195;28;20030;-73
2022/08/11 15:56:49;;;;;;;1.17;1.05;;;;;;;;;;4995821;28;20057;-81
2022/08/11 16:04:50;;;;;;;1.83;1.15;;;;;;;;;;4994377;28;20097;-73
2022/08/11 16:07:26;;;;;;;1.15;1.05;;;;;;;;;;4991443;28;20428;-73
2022/08/11 16:10:01;;;;;;;1.02;0.93;;;;;;;;;;4993792;28;20124;-83
2022/08/11 16:16:12;;;;;;;1.55;1.45;;;;;;;;;;4993700;28;20413;-77
2022/08/11 16:18:20;;;;;;;0.75;0.65;;;;;;;;;;4991069;28;20029;-74
2022/08/11 16:20:48;;;;;;;0.75;0.75;;;;;;;;;;4995842;28;20034;-73
2022/08/11 16:23:15;;;;;;;0.90;0.70;;;;;;;;;;4995478;28;20025;-75
2022/08/11 16:25:41;;;;;;;0.90;0.82;;;;;;;;;;4995618;28;20014;-74
2022/08/11 16:28:08;;;;;;;0.80;0.80;;;;;;;;;;4995714;28;20422;-74
2022/08/11 16:30:35;;;;;;;1.05;0.95;;;;;;;;;;4987825;28;20085;-74
2022/08/11 16:33:03;;;;;;;0.63;0.60;;;;;;;;;;4993585;28;20116;-74
2022/08/11 16:40:59;;;;;;;1.23;1.00;;;;;;;;;;4995031;28;20050;-74
2022/08/11 16:48:59;;;;;;;0.88;0.88;;;;;;;;;;4995790;28;20092;-76
2022/08/11 16:51:24;;;;;;;1.15;1.00;;;;;;;;;;4991526;28;20457;-75
2022/08/11 16:53:50;;;;;;;0.90;0.77;;;;;;;;;;4991495;28;20045;-77
2022/08/11 16:56:21;;;;;;;0.75;0.70;;;;;;;;;;4995559;28;20085;-76
2022/08/11 17:01:37;;;;;;;1.58;0.95;;;;;;;;;;4996289;28;20437;-76
2022/08/11 17:18:05;;;;;;;1.55;1.10;;;;;;;;;;4976518;28;20034;-75
2022/08/11 17:20:33;;;;;;;0.73;0.70;;;;;;;;;;4976263;28;20088;-75
2022/08/11 17:25:47;;;;;;;0.70;0.70;;;;;;;;;;4995853;28;20377;-76
2022/08/11 17:28:13;;;;;;;0.82;0.82;;;;;;;;;;4995443;28;20362;-76
2022/08/11 17:36:14;;;;;;;3.05;1.70;;;;;;;;;;4995872;28;20373;-75
2022/08/11 17:38:41;;;;;;;0.80;0.80;;;;;;;;;;4996540;28;20022;-76
2022/08/11 17:49:22;;;;;;;1.83;1.35;;;;;;;;;;4996092;28;20113;-74
2022/08/11 18:00:05;;;;;;;0.93;0.77;;;;;;;;;;4994454;28;20045;-76
2022/08/11 18:05:36;;;;;;;0.60;0.60;;;;;;;;;;4995343;28;20037;-77
